Time;durP1;ratioP1;P1;durP2;ratioP2;P2;SDS_P1;SDS_P2;PMS_P1;PMS_P2;Temp;Humidity;BMP_temperature;BMP_pressure;BME280_temperature;BME280_humidity;BME280_pressure;Samples;Min_cycle;Max_cycle;Signal;HPM_P1;HPM_P2
2021/05/12 00:02:52;;;;;;;4.72;2.33;;;;;;;;;;4874519;29;20297;-91
2021/05/12 00:05:58;;;;;;;2.83;1.92;;;;;;;;;;4915636;29;20195;-88
2021/05/12 00:09:02;;;;;;;2.92;2.08;;;;;;;;;;4901156;29;20203;-89
2021/05/12 00:12:08;;;;;;;3.88;2.45;;;;;;;;;;4900979;29;20200;-90
2021/05/12 00:15:14;;;;;;;2.80;2.17;;;;;;;;;;4913247;29;20219;-89
2021/05/12 00:18:20;;;;;;;4.38;2.40;;;;;;;;;;4915601;29;20300;-88
2021/05/12 00:21:30;;;;;;;4.78;2.47;;;;;;;;;;4916237;29;20325;-90
2021/05/12 00:24:34;;;;;;;3.60;2.70;;;;;;;;;;4876819;29;20202;-89
2021/05/12 00:27:39;;;;;;;7.05;2.95;;;;;;;;;;4898657;29;20223;-89
2021/05/12 00:30:44;;;;;;;6.53;2.58;;;;;;;;;;4903123;29;20204;-88
2021/05/12 00:33:48;;;;;;;3.40;2.63;;;;;;;;;;4893269;29;20239;-89
2021/05/12 00:36:53;;;;;;;3.33;2.50;;;;;;;;;;4875262;29;20321;-87
2021/05/12 00:39:58;;;;;;;5.57;3.00;;;;;;;;;;4891266;29;20192;-88
2021/05/12 00:43:02;;;;;;;4.53;3.17;;;;;;;;;;4911416;29;20675;-90
2021/05/12 00:46:07;;;;;;;4.28;3.30;;;;;;;;;;4901780;29;20208;-88
2021/05/12 00:49:11;;;;;;;5.40;3.50;;;;;;;;;;4902881;29;20192;-89
2021/05/12 00:52:16;;;;;;;5.28;3.40;;;;;;;;;;4904109;29;20243;-89
2021/05/12 00:55:21;;;;;;;4.65;3.38;;;;;;;;;;4879230;29;20230;-89
2021/05/12 00:58:26;;;;;;;5.82;3.78;;;;;;;;;;4889275;29;20224;-88
2021/05/12 01:01:31;;;;;;;5.45;3.83;;;;;;;;;;4890286;29;20220;-91
2021/05/12 01:04:36;;;;;;;7.03;3.55;;;;;;;;;;4889947;29;20263;-90
2021/05/12 01:07:41;;;;;;;6.05;3.00;;;;;;;;;;4901199;29;20200;-89
2021/05/12 01:10:46;;;;;;;4.93;2.90;;;;;;;;;;4916196;29;20188;-89
2021/05/12 01:13:51;;;;;;;3.15;2.22;;;;;;;;;;4908053;29;20212;-90
2021/05/12 01:16:55;;;;;;;3.72;2.60;;;;;;;;;;4911502;29;20199;-88
2021/05/12 01:20:00;;;;;;;3.15;2.20;;;;;;;;;;4905806;29;20261;-89
2021/05/12 01:23:05;;;;;;;2.63;2.05;;;;;;;;;;4914665;29;20606;-88
2021/05/12 01:26:11;;;;;;;2.97;2.50;;;;;;;;;;4878220;29;20225;-90
2021/05/12 01:29:16;;;;;;;2.70;2.20;;;;;;;;;;4898088;29;20609;-90
2021/05/12 01:32:21;;;;;;;3.35;2.33;;;;;;;;;;4914839;29;20240;-90
2021/05/12 01:35:25;;;;;;;3.28;2.20;;;;;;;;;;4906557;29;20678;-89
2021/05/12 01:38:32;;;;;;;2.72;2.08;;;;;;;;;;4896448;29;20244;-91
2021/05/12 01:41:36;;;;;;;4.18;2.30;;;;;;;;;;4915332;29;20258;-90
2021/05/12 01:44:40;;;;;;;9.30;2.38;;;;;;;;;;4897941;29;20256;-88
2021/05/12 01:47:45;;;;;;;6.15;2.03;;;;;;;;;;4914084;29;20207;-88
2021/05/12 01:50:50;;;;;;;3.17;1.85;;;;;;;;;;4897922;29;20205;-88
2021/05/12 01:53:55;;;;;;;7.03;2.35;;;;;;;;;;4895883;29;20582;-89
2021/05/12 01:57:00;;;;;;;7.63;2.22;;;;;;;;;;4895313;29;20257;-89
2021/05/12 02:00:16;;;;;;;6.03;2.03;;;;;;;;;;4896618;29;20196;-87
2021/05/12 02:03:21;;;;;;;4.50;2.40;;;;;;;;;;4909196;29;20224;-89
2021/05/12 02:06:25;;;;;;;8.30;2.20;;;;;;;;;;4914401;29;20226;-87
2021/05/12 02:09:35;;;;;;;3.17;2.03;;;;;;;;;;4915713;29;20207;-90
2021/05/12 02:12:40;;;;;;;6.38;2.10;;;;;;;;;;4902148;29;20236;-91
2021/05/12 02:15:46;;;;;;;4.38;2.22;;;;;;;;;;4911361;29;20212;-89
2021/05/12 02:18:50;;;;;;;5.97;2.38;;;;;;;;;;4877923;29;20229;-87
2021/05/12 02:21:54;;;;;;;8.80;2.33;;;;;;;;;;4915442;29;20701;-88
2021/05/12 02:25:00;;;;;;;6.70;2.47;;;;;;;;;;4877493;29;20214;-89
2021/05/12 02:28:05;;;;;;;2.47;2.00;;;;;;;;;;4888760;29;20250;-88
2021/05/12 02:31:10;;;;;;;5.35;2.05;;;;;;;;;;4887960;29;20205;-88
2021/05/12 02:34:14;;;;;;;6.82;2.00;;;;;;;;;;4887522;29;20193;-88
2021/05/12 02:37:19;;;;;;;2.80;1.80;;;;;;;;;;4886894;29;20210;-87
2021/05/12 02:40:25;;;;;;;7.85;2.00;;;;;;;;;;4911722;29;20213;-88
2021/05/12 02:43:29;;;;;;;3.35;2.10;;;;;;;;;;4911398;29;20211;-88
2021/05/12 02:46:34;;;;;;;3.85;1.70;;;;;;;;;;4913827;29;20220;-88
2021/05/12 02:49:39;;;;;;;3.92;1.88;;;;;;;;;;4914352;29;20252;-88
2021/05/12 02:52:43;;;;;;;2.88;1.85;;;;;;;;;;4896411;29;20614;-88
2021/05/12 02:55:49;;;;;;;5.97;2.05;;;;;;;;;;4876886;29;20224;-89
2021/05/12 02:58:53;;;;;;;3.13;2.28;;;;;;;;;;4897206;29;20219;-91
2021/05/12 03:01:58;;;;;;;5.80;2.45;;;;;;;;;;4902202;29;20215;-87
2021/05/12 03:05:03;;;;;;;4.85;2.30;;;;;;;;;;4893869;29;20216;-90
2021/05/12 03:08:07;;;;;;;2.50;1.92;;;;;;;;;;4908471;29;20240;-88
2021/05/12 03:11:13;;;;;;;1.77;1.60;;;;;;;;;;4908707;29;20291;-88
2021/05/12 03:14:18;;;;;;;3.58;2.10;;;;;;;;;;4876617;29;20197;-88
2021/05/12 03:17:22;;;;;;;5.00;1.90;;;;;;;;;;4877388;29;20201;-89
2021/05/12 03:20:28;;;;;;;4.35;1.85;;;;;;;;;;4901395;29;20250;-88
2021/05/12 03:23:32;;;;;;;4.13;1.40;;;;;;;;;;4911258;29;20543;-89
2021/05/12 03:26:42;;;;;;;3.95;1.50;;;;;;;;;;4904193;29;20184;-88
2021/05/12 03:29:48;;;;;;;7.15;1.60;;;;;;;;;;4911954;29;20265;-89
2021/05/12 03:32:53;;;;;;;2.70;1.20;;;;;;;;;;4913854;29;20217;-90
2021/05/12 03:35:58;;;;;;;1.27;0.90;;;;;;;;;;4897446;29;20318;-89
2021/05/12 03:39:03;;;;;;;3.03;0.80;;;;;;;;;;4890739;29;20324;-88
2021/05/12 03:42:10;;;;;;;2.50;0.70;;;;;;;;;;4909272;29;20220;-87
2021/05/12 03:45:14;;;;;;;2.03;1.10;;;;;;;;;;4913385;29;20188;-88
2021/05/12 03:48:19;;;;;;;2.67;0.88;;;;;;;;;;4908893;29;20232;-88
2021/05/12 03:51:24;;;;;;;0.85;0.70;;;;;;;;;;4906554;29;20227;-87
2021/05/12 03:54:31;;;;;;;0.70;0.60;;;;;;;;;;4912594;29;20207;-88
2021/05/12 03:57:36;;;;;;;0.90;0.60;;;;;;;;;;4913624;29;20215;-90
2021/05/12 04:00:40;;;;;;;0.67;0.60;;;;;;;;;;4905415;29;20231;-88
2021/05/12 04:03:45;;;;;;;2.00;0.70;;;;;;;;;;4889421;29;20214;-89
2021/05/12 04:06:49;;;;;;;1.33;0.60;;;;;;;;;;4883147;29;20593;-88
2021/05/12 04:09:54;;;;;;;1.30;0.67;;;;;;;;;;4904247;29;20204;-88
2021/05/12 04:13:00;;;;;;;1.97;0.83;;;;;;;;;;4898303;29;20256;-88
2021/05/12 04:16:05;;;;;;;2.07;0.80;;;;;;;;;;4903037;29;20224;-91
2021/05/12 04:19:10;;;;;;;5.00;0.68;;;;;;;;;;4887301;29;20376;-88
2021/05/12 04:22:15;;;;;;;4.60;0.90;;;;;;;;;;4913574;29;20300;-90
2021/05/12 04:25:21;;;;;;;2.57;0.80;;;;;;;;;;4919040;29;20240;-89
2021/05/12 04:28:26;;;;;;;1.80;0.60;;;;;;;;;;4900300;29;20195;-90
2021/05/12 04:31:31;;;;;;;1.08;0.77;;;;;;;;;;4908854;29;20204;-88
2021/05/12 04:34:36;;;;;;;0.65;0.65;;;;;;;;;;4910783;29;20255;-90
2021/05/12 04:37:41;;;;;;;0.20;0.20;;;;;;;;;;4903353;29;20195;-88
2021/05/12 04:40:45;;;;;;;0.20;0.20;;;;;;;;;;4920076;29;20210;-87
2021/05/12 04:43:52;;;;;;;0.20;0.20;;;;;;;;;;4912755;29;20204;-90
2021/05/12 04:46:56;;;;;;;0.27;0.27;;;;;;;;;;4912412;29;20230;-89
2021/05/12 04:50:01;;;;;;;0.20;0.20;;;;;;;;;;4906344;29;20578;-89
2021/05/12 04:53:06;;;;;;;0.20;0.20;;;;;;;;;;4908203;29;20562;-90
2021/05/12 04:56:11;;;;;;;0.20;0.20;;;;;;;;;;4914483;29;20223;-87
2021/05/12 04:59:17;;;;;;;0.32;0.32;;;;;;;;;;4916506;29;20280;-88
2021/05/12 05:02:22;;;;;;;0.20;0.20;;;;;;;;;;4882077;29;20651;-90
2021/05/12 05:05:28;;;;;;;0.20;0.20;;;;;;;;;;4901326;29;20630;-88
2021/05/12 05:08:33;;;;;;;0.20;0.20;;;;;;;;;;4905116;29;20237;-90
2021/05/12 05:11:38;;;;;;;0.35;0.35;;;;;;;;;;4913288;29;20191;-89
2021/05/12 05:14:44;;;;;;;0.20;0.20;;;;;;;;;;4894932;29;20333;-88
2021/05/12 05:17:49;;;;;;;0.20;0.20;;;;;;;;;;4917013;29;20216;-90
2021/05/12 05:20:54;;;;;;;0.20;0.20;;;;;;;;;;4915871;29;20228;-87
2021/05/12 05:24:00;;;;;;;0.20;0.20;;;;;;;;;;4918527;29;20211;-89
2021/05/12 05:27:04;;;;;;;0.40;0.40;;;;;;;;;;4907190;29;20216;-90
2021/05/12 05:30:12;;;;;;;0.20;0.20;;;;;;;;;;4912112;29;20262;-89
2021/05/12 05:33:43;;;;;;;9.85;0.68;;;;;;;;;;4889635;29;20205;-90
2021/05/12 05:37:09;;;;;;;0.20;0.20;;;;;;;;;;4899618;29;20195;-88
2021/05/12 05:40:33;;;;;;;0.30;0.30;;;;;;;;;;4931196;29;20266;-88
2021/05/12 05:43:56;;;;;;;0.30;0.30;;;;;;;;;;4918520;29;20205;-87
2021/05/12 05:47:23;;;;;;;0.22;0.22;;;;;;;;;;4924515;29;20352;-89
2021/05/12 05:50:47;;;;;;;0.30;0.30;;;;;;;;;;4894038;29;20281;-87
2021/05/12 05:54:11;;;;;;;0.20;0.20;;;;;;;;;;4922131;29;20215;-89
2021/05/12 05:57:51;;;;;;;4.80;0.90;;;;;;;;;;4837353;29;20670;-86
2021/05/12 06:01:17;;;;;;;0.90;0.50;;;;;;;;;;4892682;29;20292;-91
2021/05/12 06:04:24;;;;;;;2.72;0.40;;;;;;;;;;4887283;29;20213;-91
2021/05/12 06:07:47;;;;;;;0.20;0.20;;;;;;;;;;4927912;29;20281;-90
2021/05/12 06:11:10;;;;;;;2.28;0.73;;;;;;;;;;4907850;29;20226;-89
2021/05/12 06:14:51;;;;;;;0.20;0.20;;;;;;;;;;4871044;29;20241;-90
2021/05/12 06:18:13;;;;;;;0.30;0.30;;;;;;;;;;4920353;29;20208;-90
2021/05/12 06:21:38;;;;;;;0.30;0.30;;;;;;;;;;4924977;29;20240;-89
2021/05/12 06:25:02;;;;;;;8.20;1.00;;;;;;;;;;4914494;29;20216;-89
2021/05/12 06:28:25;;;;;;;0.20;0.20;;;;;;;;;;4908861;29;20276;-90
2021/05/12 06:31:49;;;;;;;0.30;0.30;;;;;;;;;;4890931;29;20673;-90
2021/05/12 06:35:12;;;;;;;0.40;0.40;;;;;;;;;;4891965;29;20210;-90
2021/05/12 06:38:37;;;;;;;0.20;0.20;;;;;;;;;;4898896;29;20242;-89
2021/05/12 06:41:42;;;;;;;0.20;0.20;;;;;;;;;;4894425;29;20208;-88
2021/05/12 06:48:07;;;;;;;0.20;0.20;;;;;;;;;;4913201;29;20208;-88
2021/05/12 06:51:13;;;;;;;0.30;0.30;;;;;;;;;;4912758;29;20207;-88
2021/05/12 06:54:19;;;;;;;0.20;0.20;;;;;;;;;;4911361;29;20247;-89
2021/05/12 06:57:24;;;;;;;0.32;0.32;;;;;;;;;;4914101;29;20192;-89
2021/05/12 07:00:29;;;;;;;0.20;0.20;;;;;;;;;;4911499;29;20224;-90
2021/05/12 07:03:34;;;;;;;0.80;0.50;;;;;;;;;;4891669;29;20231;-87
2021/05/12 07:06:39;;;;;;;0.20;0.20;;;;;;;;;;4883011;29;20201;-89
2021/05/12 07:09:44;;;;;;;0.30;0.30;;;;;;;;;;4905191;29;20201;-90
2021/05/12 07:12:49;;;;;;;0.40;0.40;;;;;;;;;;4892047;29;20197;-90
2021/05/12 07:15:54;;;;;;;0.20;0.20;;;;;;;;;;4882531;29;20732;-88
2021/05/12 07:18:58;;;;;;;0.20;0.20;;;;;;;;;;4900449;29;20224;-88
2021/05/12 07:22:03;;;;;;;1.55;0.88;;;;;;;;;;4898413;29;20470;-88
2021/05/12 07:25:10;;;;;;;0.20;0.20;;;;;;;;;;4897738;29;20695;-87
2021/05/12 07:28:15;;;;;;;0.20;0.20;;;;;;;;;;4909668;29;20337;-87
2021/05/12 07:31:20;;;;;;;0.40;0.40;;;;;;;;;;4911087;29;20208;-88
2021/05/12 07:34:25;;;;;;;0.28;0.28;;;;;;;;;;4899767;29;20208;-88
2021/05/12 07:37:30;;;;;;;0.20;0.20;;;;;;;;;;4897272;29;20212;-90
2021/05/12 07:40:35;;;;;;;0.20;0.20;;;;;;;;;;4896670;29;20216;-88
2021/05/12 07:43:40;;;;;;;0.30;0.30;;;;;;;;;;4899512;29;20274;-88
2021/05/12 07:46:45;;;;;;;0.30;0.30;;;;;;;;;;4898305;29;20348;-88
2021/05/12 07:49:50;;;;;;;0.30;0.30;;;;;;;;;;4880717;29;20254;-90
2021/05/12 07:52:54;;;;;;;0.20;0.20;;;;;;;;;;4910423;29;20240;-88
2021/05/12 07:56:00;;;;;;;0.20;0.20;;;;;;;;;;4894169;29;20196;-88
2021/05/12 07:59:05;;;;;;;0.20;0.20;;;;;;;;;;4894782;29;20215;-88
2021/05/12 08:02:10;;;;;;;0.30;0.30;;;;;;;;;;4895287;29;20255;-89
2021/05/12 08:05:15;;;;;;;0.20;0.20;;;;;;;;;;4919979;29;20267;-89
2021/05/12 08:08:20;;;;;;;0.20;0.20;;;;;;;;;;4876819;29;20212;-89
2021/05/12 08:11:30;;;;;;;0.20;0.20;;;;;;;;;;4903743;29;20327;-88
2021/05/12 08:14:35;;;;;;;0.20;0.20;;;;;;;;;;4900574;29;20265;-89
2021/05/12 08:17:40;;;;;;;0.25;0.25;;;;;;;;;;4898182;29;20204;-88
2021/05/12 08:20:44;;;;;;;0.28;0.28;;;;;;;;;;4897214;29;20257;-89
2021/05/12 08:23:50;;;;;;;0.20;0.20;;;;;;;;;;4895657;29;20222;-89
2021/05/12 08:26:56;;;;;;;0.50;0.50;;;;;;;;;;4895963;29;20579;-89
2021/05/12 08:30:03;;;;;;;0.20;0.20;;;;;;;;;;4901971;29;20199;-88
2021/05/12 08:33:08;;;;;;;8.38;0.95;;;;;;;;;;4904578;29;20244;-88
2021/05/12 08:36:14;;;;;;;0.20;0.20;;;;;;;;;;4896415;29;20724;-87
2021/05/12 08:39:18;;;;;;;0.20;0.20;;;;;;;;;;4896640;29;20224;-88
2021/05/12 08:42:24;;;;;;;0.20;0.20;;;;;;;;;;4899126;29;20323;-89
2021/05/12 08:45:29;;;;;;;0.30;0.30;;;;;;;;;;4895663;29;20208;-88
2021/05/12 08:48:36;;;;;;;0.30;0.30;;;;;;;;;;4895430;29;20208;-88
2021/05/12 08:51:42;;;;;;;0.20;0.20;;;;;;;;;;4897454;29;20208;-90
2021/05/12 08:54:47;;;;;;;0.20;0.20;;;;;;;;;;4907169;29;20189;-89
2021/05/12 08:57:52;;;;;;;0.20;0.20;;;;;;;;;;4896379;29;20297;-89
2021/05/12 09:00:57;;;;;;;0.20;0.20;;;;;;;;;;4896024;29;20219;-91
2021/05/12 09:04:03;;;;;;;0.20;0.20;;;;;;;;;;4898086;29;20233;-89
2021/05/12 09:07:07;;;;;;;0.20;0.20;;;;;;;;;;4905930;29;20212;-90
2021/05/12 09:10:12;;;;;;;0.50;0.50;;;;;;;;;;4896864;29;20205;-89
2021/05/12 09:13:29;;;;;;;0.20;0.20;;;;;;;;;;4899381;29;20200;-89
2021/05/12 09:16:35;;;;;;;0.22;0.22;;;;;;;;;;4881317;29;20197;-89
2021/05/12 09:19:39;;;;;;;0.30;0.30;;;;;;;;;;4890927;29;20220;-89
2021/05/12 09:22:44;;;;;;;0.20;0.20;;;;;;;;;;4898075;29;20237;-89
2021/05/12 09:25:54;;;;;;;0.20;0.20;;;;;;;;;;4908754;29;20274;-89
2021/05/12 09:29:00;;;;;;;0.47;0.47;;;;;;;;;;4916452;29;20203;-89
2021/05/12 09:32:06;;;;;;;0.20;0.20;;;;;;;;;;4916993;29;20260;-88
2021/05/12 09:35:14;;;;;;;0.30;0.30;;;;;;;;;;4918740;29;20192;-89
2021/05/12 09:38:21;;;;;;;0.47;0.47;;;;;;;;;;4898658;29;20260;-88
2021/05/12 09:41:31;;;;;;;0.32;0.32;;;;;;;;;;4900226;29;20193;-89
2021/05/12 09:44:37;;;;;;;0.20;0.20;;;;;;;;;;4898434;29;20252;-89
2021/05/12 09:47:42;;;;;;;0.30;0.30;;;;;;;;;;4897294;29;20245;-89
2021/05/12 09:50:47;;;;;;;0.30;0.30;;;;;;;;;;4904824;29;20297;-88
2021/05/12 09:54:05;;;;;;;0.20;0.20;;;;;;;;;;4897305;29;20184;-88
2021/05/12 09:57:09;;;;;;;0.20;0.20;;;;;;;;;;4898387;29;20250;-90
2021/05/12 10:00:27;;;;;;;0.20;0.20;;;;;;;;;;4897194;29;20229;-90
2021/05/12 10:03:33;;;;;;;0.20;0.20;;;;;;;;;;4896922;29;20199;-89
2021/05/12 10:06:38;;;;;;;0.30;0.30;;;;;;;;;;4898768;29;20216;-90
2021/05/12 10:09:43;;;;;;;0.30;0.30;;;;;;;;;;4890860;29;20226;-89
2021/05/12 10:12:48;;;;;;;0.20;0.20;;;;;;;;;;4881782;29;20619;-90
2021/05/12 10:15:53;;;;;;;0.25;0.25;;;;;;;;;;4907568;29;20268;-87
2021/05/12 10:18:58;;;;;;;0.30;0.30;;;;;;;;;;4899819;29;20256;-90
2021/05/12 10:22:04;;;;;;;0.38;0.38;;;;;;;;;;4900351;29;20181;-87
2021/05/12 10:25:09;;;;;;;0.20;0.20;;;;;;;;;;4901022;29;20249;-88
2021/05/12 10:28:14;;;;;;;0.20;0.20;;;;;;;;;;4899909;29;20204;-89
2021/05/12 10:31:20;;;;;;;0.30;0.30;;;;;;;;;;4902789;29;20196;-88
2021/05/12 10:34:38;;;;;;;0.50;0.50;;;;;;;;;;4906346;29;20208;-90
2021/05/12 10:37:44;;;;;;;0.30;0.30;;;;;;;;;;4903935;29;20226;-86
2021/05/12 10:40:48;;;;;;;0.20;0.20;;;;;;;;;;4906059;29;20245;-89
2021/05/12 10:43:54;;;;;;;0.30;0.30;;;;;;;;;;4922200;29;20212;-90
2021/05/12 10:47:09;;;;;;;0.30;0.30;;;;;;;;;;4921372;29;20188;-90
2021/05/12 10:50:14;;;;;;;0.25;0.25;;;;;;;;;;4906792;29;20318;-88
2021/05/12 10:53:20;;;;;;;0.40;0.40;;;;;;;;;;4910769;29;20217;-90
2021/05/12 10:56:34;;;;;;;0.22;0.22;;;;;;;;;;4911563;29;20227;-89
2021/05/12 10:59:52;;;;;;;0.35;0.35;;;;;;;;;;4904278;29;20270;-89
2021/05/12 11:03:02;;;;;;;0.20;0.20;;;;;;;;;;4908346;29;20220;-90
2021/05/12 11:06:07;;;;;;;0.22;0.22;;;;;;;;;;4898887;29;20215;-90
2021/05/12 11:09:13;;;;;;;0.20;0.20;;;;;;;;;;4911168;29;20679;-89
2021/05/12 11:12:23;;;;;;;0.20;0.20;;;;;;;;;;4906380;29;20634;-88
2021/05/12 11:15:50;;;;;;;0.20;0.20;;;;;;;;;;4913918;29;20199;-89
2021/05/12 11:18:55;;;;;;;0.20;0.20;;;;;;;;;;4904941;29;20272;-88
2021/05/12 11:22:27;;;;;;;0.20;0.20;;;;;;;;;;4898062;29;20203;-91
2021/05/12 11:25:37;;;;;;;0.28;0.28;;;;;;;;;;4890349;29;20264;-89
2021/05/12 11:31:09;;;;;;;0.30;0.30;;;;;;;;;;4913279;29;20240;-89
2021/05/12 11:32:36;;;;;;;0.43;0.43;;;;;;;;;;4918651;29;20215;-91
2021/05/12 11:35:47;;;;;;;0.20;0.20;;;;;;;;;;4916866;29;20323;-91
2021/05/12 11:38:53;;;;;;;0.40;0.40;;;;;;;;;;4910514;29;20207;-89
2021/05/12 11:41:58;;;;;;;0.20;0.20;;;;;;;;;;4899281;29;20217;-91
2021/05/12 11:45:04;;;;;;;0.50;0.50;;;;;;;;;;4881467;29;20206;-90
2021/05/12 11:48:09;;;;;;;0.20;0.20;;;;;;;;;;4916443;29;20255;-89
2021/05/12 11:51:18;;;;;;;0.20;0.20;;;;;;;;;;4896095;29;20200;-90
2021/05/12 11:54:24;;;;;;;0.22;0.22;;;;;;;;;;4876882;29;20730;-89
2021/05/12 11:57:29;;;;;;;0.20;0.20;;;;;;;;;;4889055;29;20196;-91
2021/05/12 12:00:38;;;;;;;0.20;0.20;;;;;;;;;;4908033;29;20224;-89
2021/05/12 12:03:53;;;;;;;0.30;0.30;;;;;;;;;;4898465;29;20228;-90
2021/05/12 12:07:09;;;;;;;0.28;0.28;;;;;;;;;;4906635;29;20224;-90
2021/05/12 12:10:15;;;;;;;0.30;0.30;;;;;;;;;;4915188;29;20199;-90
2021/05/12 12:13:19;;;;;;;0.75;0.45;;;;;;;;;;4899849;29;20188;-90
2021/05/12 12:16:24;;;;;;;0.98;0.60;;;;;;;;;;4898861;29;20196;-90
2021/05/12 12:19:30;;;;;;;0.40;0.40;;;;;;;;;;4896615;29;20223;-91
2021/05/12 12:22:36;;;;;;;0.40;0.40;;;;;;;;;;4896225;29;20353;-90
2021/05/12 12:25:44;;;;;;;0.20;0.20;;;;;;;;;;4896582;29;20196;-91
2021/05/12 12:28:50;;;;;;;0.40;0.40;;;;;;;;;;4899261;29;20196;-90
2021/05/12 12:31:58;;;;;;;0.20;0.20;;;;;;;;;;4897461;29;20245;-91
2021/05/12 12:35:03;;;;;;;0.28;0.28;;;;;;;;;;4909581;29;20273;-90
2021/05/12 12:38:17;;;;;;;0.20;0.20;;;;;;;;;;4896980;29;20205;-90
2021/05/12 12:41:22;;;;;;;0.60;0.60;;;;;;;;;;4899084;29;20266;-88
2021/05/12 12:44:33;;;;;;;0.20;0.20;;;;;;;;;;4894475;29;20223;-89
2021/05/12 12:47:37;;;;;;;0.30;0.30;;;;;;;;;;4899015;29;20235;-88
2021/05/12 12:50:42;;;;;;;0.20;0.20;;;;;;;;;;4899789;29;20212;-88
2021/05/12 12:53:55;;;;;;;0.20;0.20;;;;;;;;;;4900086;29;20208;-88
2021/05/12 12:57:00;;;;;;;0.30;0.30;;;;;;;;;;4900310;29;20233;-89
2021/05/12 13:00:12;;;;;;;0.35;0.35;;;;;;;;;;4900740;29;20230;-90
2021/05/12 13:03:22;;;;;;;1.88;0.63;;;;;;;;;;4899962;29;20212;-90
2021/05/12 13:06:29;;;;;;;0.50;0.50;;;;;;;;;;4898401;29;20211;-89
2021/05/12 13:09:35;;;;;;;0.30;0.30;;;;;;;;;;4897799;29;20260;-90
2021/05/12 13:12:39;;;;;;;0.20;0.20;;;;;;;;;;4897621;29;20196;-90
2021/05/12 13:15:45;;;;;;;0.45;0.45;;;;;;;;;;4913129;29;20196;-89
2021/05/12 13:18:51;;;;;;;0.98;0.63;;;;;;;;;;4902601;29;20667;-90
2021/05/12 13:21:58;;;;;;;0.40;0.40;;;;;;;;;;4903059;29;20226;-90
2021/05/12 13:25:08;;;;;;;0.40;0.40;;;;;;;;;;4904730;29;20640;-91
2021/05/12 13:28:13;;;;;;;0.38;0.30;;;;;;;;;;4904113;29;20220;-88
2021/05/12 13:31:18;;;;;;;0.52;0.43;;;;;;;;;;4902158;29;20192;-88
2021/05/12 13:34:26;;;;;;;0.30;0.30;;;;;;;;;;4898633;29;20249;-90
2021/05/12 13:37:31;;;;;;;1.50;0.88;;;;;;;;;;4900540;29;20196;-91
2021/05/12 13:40:37;;;;;;;0.40;0.40;;;;;;;;;;4898782;29;20228;-90
2021/05/12 13:43:41;;;;;;;0.52;0.52;;;;;;;;;;4898690;29;20195;-91
2021/05/12 13:46:46;;;;;;;0.30;0.30;;;;;;;;;;4898955;29;20216;-90
2021/05/12 13:49:53;;;;;;;0.20;0.20;;;;;;;;;;4899965;29;20581;-89
2021/05/12 13:53:04;;;;;;;0.40;0.40;;;;;;;;;;4899558;29;20180;-91
2021/05/12 13:56:14;;;;;;;0.30;0.30;;;;;;;;;;4897997;29;20216;-90
2021/05/12 13:59:48;;;;;;;0.20;0.20;;;;;;;;;;4896494;29;20269;-90
2021/05/12 14:02:55;;;;;;;0.45;0.45;;;;;;;;;;4895000;29;20707;-88
2021/05/12 14:05:59;;;;;;;0.40;0.40;;;;;;;;;;4896256;29;20181;-88
2021/05/12 14:09:09;;;;;;;0.30;0.30;;;;;;;;;;4896878;29;20200;-89
2021/05/12 14:12:19;;;;;;;0.47;0.47;;;;;;;;;;4894146;29;20666;-86
2021/05/12 14:15:49;;;;;;;0.30;0.30;;;;;;;;;;4894924;29;20289;-90
2021/05/12 14:18:53;;;;;;;0.20;0.20;;;;;;;;;;4896093;29;20230;-91
2021/05/12 14:21:58;;;;;;;0.30;0.30;;;;;;;;;;4895812;29;20264;-90
2021/05/12 14:25:06;;;;;;;0.20;0.20;;;;;;;;;;4896667;29;20208;-88
2021/05/12 14:28:12;;;;;;;0.20;0.20;;;;;;;;;;4896300;29;20225;-89
2021/05/12 14:31:16;;;;;;;0.30;0.30;;;;;;;;;;4897931;29;20193;-89
2021/05/12 14:34:22;;;;;;;0.30;0.30;;;;;;;;;;4903349;29;20292;-87
2021/05/12 14:37:27;;;;;;;0.32;0.32;;;;;;;;;;4904136;29;20208;-89
2021/05/12 14:40:32;;;;;;;0.55;0.55;;;;;;;;;;4923988;29;20224;-88
2021/05/12 14:43:38;;;;;;;0.30;0.30;;;;;;;;;;4908426;29;20231;-88
2021/05/12 14:46:43;;;;;;;0.30;0.30;;;;;;;;;;4907854;29;20200;-88
2021/05/12 14:49:48;;;;;;;0.40;0.40;;;;;;;;;;4907511;29;20742;-87
2021/05/12 14:52:56;;;;;;;0.25;0.25;;;;;;;;;;4907124;29;20204;-89
2021/05/12 14:56:22;;;;;;;0.32;0.30;;;;;;;;;;4905627;29;20229;-89
2021/05/12 14:59:58;;;;;;;0.30;0.30;;;;;;;;;;4907448;29;20287;-90
2021/05/12 15:03:07;;;;;;;0.28;0.28;;;;;;;;;;4907056;29;20245;-88
2021/05/12 15:06:18;;;;;;;0.38;0.35;;;;;;;;;;4909002;29;20219;-89
2021/05/12 15:09:23;;;;;;;0.30;0.30;;;;;;;;;;4903244;29;20369;-90
2021/05/12 15:12:28;;;;;;;0.32;0.32;;;;;;;;;;4916838;29;20191;-87
2021/05/12 15:15:34;;;;;;;0.30;0.30;;;;;;;;;;4915386;29;20200;-89
2021/05/12 15:18:38;;;;;;;0.20;0.20;;;;;;;;;;4888719;29;20222;-88
2021/05/12 15:21:43;;;;;;;0.40;0.40;;;;;;;;;;4878826;29;20212;-90
2021/05/12 15:24:48;;;;;;;0.40;0.40;;;;;;;;;;4913651;29;20623;-90
2021/05/12 15:27:55;;;;;;;0.40;0.40;;;;;;;;;;4915610;29;20196;-89
2021/05/12 15:31:01;;;;;;;0.20;0.20;;;;;;;;;;4896386;29;20199;-89
2021/05/12 15:34:05;;;;;;;0.30;0.30;;;;;;;;;;4900460;29;20203;-88
2021/05/12 15:37:10;;;;;;;0.40;0.40;;;;;;;;;;4911634;29;20200;-90
2021/05/12 15:40:15;;;;;;;0.30;0.30;;;;;;;;;;4896270;29;20256;-89
2021/05/12 15:43:21;;;;;;;0.32;0.32;;;;;;;;;;4914357;29;20204;-91
2021/05/12 15:46:26;;;;;;;0.30;0.30;;;;;;;;;;4878489;29;20224;-90
2021/05/12 15:49:31;;;;;;;0.82;0.82;;;;;;;;;;4891466;29;20704;-88
2021/05/12 15:52:36;;;;;;;0.45;0.45;;;;;;;;;;4882787;29;20251;-91
2021/05/12 15:55:41;;;;;;;2.05;1.05;;;;;;;;;;4907146;29;20200;-90
2021/05/12 15:58:46;;;;;;;1.08;0.60;;;;;;;;;;4906431;29;20208;-92
2021/05/12 16:01:52;;;;;;;0.40;0.40;;;;;;;;;;4879156;29;20193;-91
2021/05/12 16:04:56;;;;;;;0.30;0.30;;;;;;;;;;4910333;29;20226;-92
2021/05/12 16:08:01;;;;;;;0.30;0.30;;;;;;;;;;4908186;29;20208;-90
2021/05/12 16:11:08;;;;;;;0.80;0.52;;;;;;;;;;4904339;29;20729;-91
2021/05/12 16:14:14;;;;;;;1.02;0.50;;;;;;;;;;4906438;29;20221;-90
2021/05/12 16:17:20;;;;;;;0.50;0.50;;;;;;;;;;4899069;29;20196;-90
2021/05/12 16:20:25;;;;;;;0.30;0.30;;;;;;;;;;4912519;29;20236;-90
2021/05/12 16:23:30;;;;;;;0.40;0.40;;;;;;;;;;4899119;29;20232;-91
2021/05/12 16:26:35;;;;;;;0.20;0.20;;;;;;;;;;4907196;29;20285;-89
2021/05/12 16:29:41;;;;;;;0.30;0.30;;;;;;;;;;4906778;29;20225;-91
2021/05/12 16:32:50;;;;;;;0.60;0.60;;;;;;;;;;4884845;29;20208;-89
2021/05/12 16:35:55;;;;;;;0.20;0.20;;;;;;;;;;4881387;29;20229;-89
2021/05/12 16:39:00;;;;;;;0.65;0.65;;;;;;;;;;4900714;29;20283;-90
2021/05/12 16:42:06;;;;;;;0.40;0.40;;;;;;;;;;4895668;29;20236;-88
2021/05/12 16:45:11;;;;;;;0.75;0.73;;;;;;;;;;4891203;29;20208;-89
2021/05/12 16:48:17;;;;;;;0.40;0.40;;;;;;;;;;4898166;29;20196;-89
2021/05/12 16:51:22;;;;;;;0.32;0.32;;;;;;;;;;4880845;29;20257;-89
2021/05/12 16:54:28;;;;;;;0.30;0.30;;;;;;;;;;4899370;29;20252;-91
2021/05/12 16:57:33;;;;;;;0.55;0.55;;;;;;;;;;4885475;29;20230;-90
2021/05/12 17:00:38;;;;;;;0.50;0.50;;;;;;;;;;4899516;29;20223;-91
2021/05/12 17:03:44;;;;;;;0.70;0.50;;;;;;;;;;4906723;29;20229;-89
2021/05/12 17:06:48;;;;;;;0.95;0.75;;;;;;;;;;4896381;29;20253;-91
2021/05/12 17:09:54;;;;;;;0.90;0.52;;;;;;;;;;4889147;29;20224;-90
2021/05/12 17:12:58;;;;;;;0.50;0.50;;;;;;;;;;4875201;29;20314;-91
2021/05/12 17:16:04;;;;;;;0.47;0.47;;;;;;;;;;4892198;29;20205;-91
2021/05/12 17:19:11;;;;;;;1.35;0.63;;;;;;;;;;4874798;29;20205;-90
2021/05/12 17:22:16;;;;;;;0.38;0.38;;;;;;;;;;4914218;29;20277;-90
2021/05/12 17:25:21;;;;;;;0.32;0.32;;;;;;;;;;4906193;29;20247;-92
2021/05/12 17:28:25;;;;;;;0.30;0.30;;;;;;;;;;4906497;29;20624;-89
2021/05/12 17:31:30;;;;;;;0.50;0.50;;;;;;;;;;4896419;29;20781;-90
2021/05/12 17:34:39;;;;;;;0.68;0.68;;;;;;;;;;4900714;29;20313;-90
2021/05/12 17:37:44;;;;;;;1.95;0.88;;;;;;;;;;4911639;29;20195;-90
2021/05/12 17:40:49;;;;;;;0.38;0.38;;;;;;;;;;4909486;29;20227;-90
2021/05/12 17:43:54;;;;;;;0.70;0.70;;;;;;;;;;4904087;29;20581;-92
2021/05/12 17:46:58;;;;;;;0.30;0.30;;;;;;;;;;4916598;29;20215;-90
2021/05/12 17:50:04;;;;;;;1.10;0.45;;;;;;;;;;4902730;29;20189;-91
2021/05/12 17:53:09;;;;;;;0.50;0.50;;;;;;;;;;4909154;29;20208;-89
2021/05/12 17:56:14;;;;;;;0.75;0.65;;;;;;;;;;4909041;29;20233;-92
2021/05/12 17:59:44;;;;;;;0.30;0.30;;;;;;;;;;4908147;29;20213;-91
2021/05/12 18:02:49;;;;;;;0.47;0.47;;;;;;;;;;4881569;29;20248;-91
2021/05/12 18:05:57;;;;;;;0.45;0.45;;;;;;;;;;4891698;29;20200;-90
2021/05/12 18:09:04;;;;;;;0.60;0.40;;;;;;;;;;4907290;29;20229;-90
2021/05/12 18:12:28;;;;;;;0.38;0.38;;;;;;;;;;4913752;29;20279;-91
2021/05/12 18:18:56;;;;;;;0.40;0.40;;;;;;;;;;4893682;29;20204;-89
2021/05/12 18:22:02;;;;;;;0.40;0.40;;;;;;;;;;4908201;29;20211;-91
2021/05/12 18:25:07;;;;;;;0.32;0.32;;;;;;;;;;4903834;29;20249;-90
2021/05/12 18:28:11;;;;;;;0.82;0.82;;;;;;;;;;4915892;29;20232;-91
2021/05/12 18:31:16;;;;;;;0.40;0.40;;;;;;;;;;4906292;29;20204;-90
2021/05/12 18:34:25;;;;;;;0.30;0.30;;;;;;;;;;4904790;29;20196;-91
2021/05/12 18:37:35;;;;;;;0.40;0.40;;;;;;;;;;4907119;29;20334;-90
2021/05/12 18:40:40;;;;;;;0.52;0.52;;;;;;;;;;4911772;29;20224;-90
2021/05/12 18:47:07;;;;;;;0.73;0.73;;;;;;;;;;4914065;29;20197;-91
2021/05/12 18:50:11;;;;;;;0.40;0.40;;;;;;;;;;4912228;29;20272;-90
2021/05/12 18:53:17;;;;;;;0.40;0.40;;;;;;;;;;4914072;29;20197;-89
2021/05/12 18:56:22;;;;;;;0.60;0.60;;;;;;;;;;4885346;29;20200;-89